createdAt,value
2022-11-07T00:00:21.711Z,2.53
2022-11-07T00:02:51.297Z,3.10
2022-11-07T00:05:21.120Z,2.33
2022-11-07T00:07:50.734Z,2.20
2022-11-07T00:10:21.496Z,2.67
2022-11-07T00:12:53.637Z,2.22
2022-11-07T00:15:23.226Z,2.20
2022-11-07T00:17:52.787Z,2.00
2022-11-07T00:20:22.333Z,2.40
2022-11-07T00:22:51.862Z,2.08
2022-11-07T00:25:21.365Z,2.47
2022-11-07T00:27:53.547Z,2.30
2022-11-07T00:30:23.073Z,2.10
2022-11-07T00:32:56.335Z,2.33
2022-11-07T00:35:28.705Z,2.65
2022-11-07T00:37:58.688Z,2.05
2022-11-07T00:40:28.234Z,2.28
2022-11-07T00:43:00.390Z,2.08
2022-11-07T00:45:29.927Z,1.88
2022-11-07T00:47:59.474Z,2.10
2022-11-07T00:50:29.099Z,2.00
2022-11-07T00:53:00.290Z,2.60
2022-11-07T00:55:29.860Z,2.40
2022-11-07T00:58:02.063Z,2.53
2022-11-07T01:00:31.668Z,2.33
2022-11-07T01:03:14.145Z,2.20
2022-11-07T01:05:44.104Z,2.20
2022-11-07T01:08:13.654Z,2.40
2022-11-07T01:10:44.448Z,2.38
2022-11-07T01:13:16.850Z,2.30
2022-11-07T01:15:46.635Z,1.85
2022-11-07T01:18:16.754Z,2.40
2022-11-07T01:20:46.722Z,2.20
2022-11-07T01:23:16.727Z,1.88
2022-11-07T01:25:46.409Z,2.10
2022-11-07T01:28:18.743Z,2.00
2022-11-07T01:30:48.573Z,2.20
2022-11-07T01:33:18.150Z,2.00
2022-11-07T01:35:47.809Z,1.80
2022-11-07T01:38:17.389Z,1.80
2022-11-07T01:40:59.211Z,1.92
2022-11-07T01:43:48.966Z,1.80
2022-11-07T01:46:18.896Z,1.83
2022-11-07T01:48:53.114Z,1.83
2022-11-07T01:51:23.562Z,1.60
2022-11-07T01:53:54.332Z,1.77
2022-11-07T01:56:27.253Z,2.20
2022-11-07T01:58:59.951Z,1.80
2022-11-07T02:01:30.247Z,1.90
2022-11-07T02:04:01.495Z,1.90
2022-11-07T02:06:35.324Z,2.00
2022-11-07T02:09:05.079Z,1.90
2022-11-07T02:11:35.141Z,1.88
2022-11-07T02:14:07.536Z,2.03
2022-11-07T02:16:38.302Z,2.17
2022-11-07T02:19:11.216Z,2.10
2022-11-07T02:21:51.385Z,2.00
2022-11-07T02:24:30.007Z,2.10
2022-11-07T02:27:00.123Z,2.20
2022-11-07T02:29:30.099Z,2.20
2022-11-07T02:32:03.998Z,2.13
2022-11-07T02:34:33.668Z,1.80
2022-11-07T02:37:04.714Z,2.50
2022-11-07T02:39:36.911Z,1.97
2022-11-07T02:42:08.057Z,2.10
2022-11-07T02:44:37.741Z,1.80
2022-11-07T02:47:07.418Z,2.00
2022-11-07T02:49:37.019Z,2.00
2022-11-07T02:52:07.379Z,2.00
2022-11-07T02:54:39.593Z,2.33
2022-11-07T02:57:09.133Z,2.00
2022-11-07T02:59:38.677Z,2.13
2022-11-07T03:02:08.341Z,2.30
2022-11-07T03:04:38.108Z,2.15
2022-11-07T03:07:07.634Z,1.90
2022-11-07T03:09:39.857Z,1.90
2022-11-07T03:12:09.940Z,2.58
2022-11-07T03:14:39.866Z,2.40
2022-11-07T03:17:09.534Z,2.20
2022-11-07T03:19:39.078Z,2.20
2022-11-07T03:22:08.635Z,2.10
2022-11-07T03:24:40.787Z,2.20
2022-11-07T03:27:10.340Z,2.30
2022-11-07T03:29:39.905Z,2.00
2022-11-07T03:32:09.584Z,2.15
2022-11-07T03:34:39.198Z,2.58
2022-11-07T03:37:08.825Z,2.00
2022-11-07T03:39:40.976Z,2.50
2022-11-07T03:42:10.561Z,2.50
2022-11-07T03:44:40.518Z,2.90
2022-11-07T03:47:10.061Z,2.92
2022-11-07T03:49:39.595Z,2.20
2022-11-07T03:52:09.193Z,2.40
2022-11-07T03:54:41.406Z,2.78
2022-11-07T03:57:11.045Z,2.63
2022-11-07T03:59:40.725Z,2.80
2022-11-07T04:02:10.362Z,3.20
2022-11-07T04:04:40.126Z,2.93
2022-11-07T04:07:09.861Z,3.20
2022-11-07T04:09:41.976Z,2.70
2022-11-07T04:12:24.529Z,2.50
2022-11-07T04:15:22.089Z,2.47
2022-11-07T04:17:51.646Z,3.28
2022-11-07T04:20:21.336Z,2.70
2022-11-07T04:22:50.898Z,3.03
2022-11-07T04:25:43.351Z,2.80
2022-11-07T04:28:10.302Z,2.58
2022-11-07T04:30:39.906Z,2.33
2022-11-07T04:33:09.552Z,2.35
2022-11-07T04:35:39.099Z,2.85
2022-11-07T04:38:08.716Z,2.47
2022-11-07T04:40:40.834Z,2.78
2022-11-07T04:43:11.815Z,1.92
2022-11-07T04:45:42.007Z,2.45
2022-11-07T04:48:12.873Z,2.58
2022-11-07T04:50:42.853Z,2.40
2022-11-07T04:53:15.447Z,3.28
2022-11-07T04:55:48.017Z,2.60
2022-11-07T04:58:17.551Z,2.10
2022-11-07T05:00:47.129Z,2.50
2022-11-07T05:03:17.051Z,2.00
2022-11-07T05:05:46.951Z,2.53
2022-11-07T05:08:16.540Z,3.33
2022-11-07T05:10:48.700Z,2.10
2022-11-07T05:13:18.602Z,2.90
2022-11-07T05:15:48.271Z,2.67
2022-11-07T05:18:21.202Z,2.00
2022-11-07T05:20:50.793Z,3.17
2022-11-07T05:23:19.055Z,2.20
2022-11-07T05:25:53.351Z,2.50
2022-11-07T05:28:33.672Z,2.40
2022-11-07T05:31:08.513Z,2.43
2022-11-07T05:33:40.347Z,2.70
2022-11-07T05:36:14.585Z,2.13
2022-11-07T05:38:45.360Z,2.60
2022-11-07T05:41:18.936Z,2.30
2022-11-07T05:43:48.766Z,2.20
2022-11-07T05:46:18.381Z,2.60
2022-11-07T05:48:48.004Z,2.83
2022-11-07T05:51:17.667Z,2.77
2022-11-07T05:53:47.380Z,2.25
2022-11-07T05:56:20.157Z,2.40
2022-11-07T05:58:50.932Z,2.50
2022-11-07T06:01:20.732Z,2.80
2022-11-07T06:03:50.339Z,3.20
2022-11-07T06:06:19.879Z,2.40
2022-11-07T06:10:29.886Z,2.55
2022-11-07T06:13:03.588Z,2.40
2022-11-07T06:15:35.876Z,2.40
2022-11-07T06:18:07.242Z,3.00
2022-11-07T06:20:37.955Z,3.23
2022-11-07T06:23:08.776Z,2.72
2022-11-07T06:25:41.126Z,2.30
2022-11-07T06:28:12.609Z,2.58
2022-11-07T06:30:42.526Z,2.80
2022-11-07T06:33:15.622Z,2.80
2022-11-07T06:35:46.148Z,2.90
2022-11-07T06:38:17.113Z,2.40
2022-11-07T06:40:49.556Z,2.42
2022-11-07T06:43:20.967Z,3.20
2022-11-07T06:45:51.001Z,2.75
2022-11-07T06:48:20.568Z,2.80
2022-11-07T06:50:50.277Z,2.78
2022-11-07T06:53:20.153Z,2.60
2022-11-07T06:55:52.455Z,2.78
2022-11-07T06:58:22.193Z,2.38
2022-11-07T07:00:51.955Z,2.67
2022-11-07T07:03:21.682Z,2.22
2022-11-07T07:05:51.280Z,3.10
2022-11-07T07:08:21.069Z,2.83
2022-11-07T07:10:53.233Z,2.60
2022-11-07T07:13:22.838Z,2.70
2022-11-07T07:15:56.592Z,2.45
2022-11-07T07:18:26.587Z,2.53
2022-11-07T07:20:58.368Z,2.50
2022-11-07T07:23:27.977Z,2.30
2022-11-07T07:26:00.318Z,2.60
2022-11-07T07:28:30.062Z,2.90
2022-11-07T07:31:11.122Z,2.85
2022-11-07T07:33:40.834Z,2.10
2022-11-07T07:36:15.294Z,2.58
2022-11-07T07:38:47.555Z,2.20
2022-11-07T07:41:20.204Z,3.00
2022-11-07T07:43:49.790Z,2.30
2022-11-07T07:46:22.631Z,2.30
2022-11-07T07:48:52.307Z,2.70
2022-11-07T07:51:22.097Z,2.50
2022-11-07T07:53:51.669Z,2.30
2022-11-07T07:56:24.404Z,2.75
2022-11-07T07:58:54.214Z,3.03
2022-11-07T08:01:23.969Z,2.30
2022-11-07T08:04:02.488Z,2.45
2022-11-07T08:06:32.641Z,2.30
2022-11-07T08:09:02.362Z,2.70
2022-11-07T08:11:35.278Z,2.50
2022-11-07T08:14:04.892Z,3.00
2022-11-07T08:16:34.647Z,2.95
2022-11-07T08:19:04.223Z,3.50
2022-11-07T08:21:33.908Z,2.30
2022-11-07T08:24:03.651Z,2.70
2022-11-07T08:26:35.933Z,3.30
2022-11-07T08:29:05.503Z,2.92
2022-11-07T08:31:35.158Z,2.50
2022-11-07T08:34:04.881Z,3.08
2022-11-07T08:36:34.582Z,2.47
2022-11-07T08:39:04.175Z,2.90
2022-11-07T08:41:36.301Z,2.63
2022-11-07T08:44:08.256Z,3.60
2022-11-07T08:46:37.996Z,2.63
2022-11-07T08:49:07.867Z,3.15
2022-11-07T08:51:37.441Z,2.10
2022-11-07T08:54:07.407Z,2.35
2022-11-07T08:56:39.600Z,2.83
2022-11-07T08:59:09.941Z,2.67
2022-11-07T09:01:56.119Z,2.70
2022-11-07T09:04:29.268Z,2.92
2022-11-07T09:06:59.288Z,4.10
2022-11-07T09:09:28.853Z,2.80
2022-11-07T09:12:01.169Z,2.60
2022-11-07T09:14:31.259Z,2.80
2022-11-07T09:17:01.105Z,3.30
2022-11-07T09:19:30.873Z,3.10
2022-11-07T09:22:00.552Z,3.25
2022-11-07T09:24:30.133Z,2.83
2022-11-07T09:27:02.343Z,2.58
2022-11-07T09:29:31.990Z,2.80
2022-11-07T09:32:12.145Z,2.72
2022-11-07T09:34:58.170Z,2.60
2022-11-07T09:37:30.539Z,2.92
2022-11-07T09:40:00.170Z,3.10
2022-11-07T09:42:39.772Z,3.10
2022-11-07T09:45:13.632Z,2.95
2022-11-07T09:47:46.628Z,2.75
2022-11-07T09:50:20.531Z,2.60
2022-11-07T09:52:52.501Z,2.80
2022-11-07T09:55:26.168Z,1.70
2022-11-07T09:58:00.776Z,2.33
2022-11-07T10:00:33.157Z,3.00
2022-11-07T10:03:04.219Z,2.80
2022-11-07T10:05:41.465Z,3.60
2022-11-07T10:08:14.995Z,2.43
2022-11-07T10:10:47.754Z,2.65
2022-11-07T10:13:32.838Z,3.07
2022-11-07T10:16:07.676Z,2.93
2022-11-07T10:18:46.533Z,2.50
2022-11-07T10:21:38.741Z,3.03
2022-11-07T10:24:28.745Z,3.17
2022-11-07T10:26:59.386Z,3.27
2022-11-07T10:29:44.804Z,3.30
2022-11-07T10:32:21.633Z,4.20
2022-11-07T10:34:56.254Z,3.67
2022-11-07T10:37:25.943Z,4.77
2022-11-07T10:39:55.479Z,3.43
2022-11-07T10:42:27.358Z,4.20
2022-11-07T10:44:59.632Z,4.77
2022-11-07T10:47:30.511Z,4.90
2022-11-07T10:50:02.260Z,5.77
2022-11-07T10:52:32.242Z,4.07
2022-11-07T10:55:09.767Z,4.30
2022-11-07T10:57:39.399Z,5.67
2022-11-07T11:00:25.346Z,5.33
2022-11-07T11:02:56.221Z,4.80
2022-11-07T11:05:29.505Z,4.97
2022-11-07T11:08:00.860Z,4.80
2022-11-07T11:10:31.892Z,5.00
2022-11-07T11:13:01.441Z,5.33
2022-11-07T11:15:35.914Z,4.00
2022-11-07T11:18:08.056Z,3.80
2022-11-07T11:20:40.524Z,3.33
2022-11-07T11:23:18.846Z,4.00
2022-11-07T11:25:49.310Z,3.70
2022-11-07T11:28:25.023Z,3.50
2022-11-07T11:31:01.231Z,3.37
2022-11-07T11:33:35.312Z,3.20
2022-11-07T11:36:07.202Z,3.40
2022-11-07T11:38:39.089Z,3.23
2022-11-07T11:41:16.171Z,3.27
2022-11-07T11:43:49.645Z,3.60
2022-11-07T11:46:28.740Z,3.43
2022-11-07T11:49:00.887Z,3.80
2022-11-07T11:51:40.136Z,3.13
2022-11-07T11:54:11.878Z,3.67
2022-11-07T11:56:52.819Z,3.28
2022-11-07T11:59:37.995Z,3.92
2022-11-07T12:02:27.218Z,3.83
2022-11-07T12:05:01.421Z,4.10
2022-11-07T12:07:41.847Z,3.60
2022-11-07T12:10:16.194Z,4.43
2022-11-07T12:12:55.888Z,3.40
2022-11-07T12:15:35.737Z,3.23
2022-11-07T12:18:14.054Z,3.40
2022-11-07T12:20:50.403Z,3.17
2022-11-07T12:23:29.559Z,3.63
2022-11-07T12:26:05.225Z,4.47
2022-11-07T12:28:43.309Z,2.83
2022-11-07T12:31:22.277Z,4.33
2022-11-07T12:33:58.853Z,2.97
2022-11-07T12:36:40.070Z,2.93
2022-11-07T12:39:36.833Z,2.70
2022-11-07T12:42:10.369Z,3.00
2022-11-07T12:44:56.742Z,3.03
2022-11-07T12:47:40.867Z,3.03
2022-11-07T12:50:21.968Z,2.53
2022-11-07T12:53:03.515Z,2.40
2022-11-07T12:55:36.260Z,3.17
2022-11-07T12:58:06.903Z,2.37
2022-11-07T13:00:38.515Z,2.67
2022-11-07T13:03:49.780Z,2.60
2022-11-07T13:06:27.734Z,2.70
2022-11-07T13:09:03.580Z,2.90
2022-11-07T13:11:37.539Z,2.53
2022-11-07T13:14:24.294Z,2.27
2022-11-07T13:16:56.762Z,2.93
2022-11-07T13:19:32.979Z,3.10
2022-11-07T13:22:07.970Z,2.88
2022-11-07T13:24:41.291Z,2.17
2022-11-07T13:27:19.390Z,2.17
2022-11-07T13:29:49.026Z,2.60
2022-11-07T13:32:19.259Z,2.40
2022-11-07T13:34:52.037Z,2.67
2022-11-07T13:37:26.339Z,2.30
2022-11-07T13:39:59.159Z,2.90
2022-11-07T13:42:29.977Z,2.50
2022-11-07T13:45:01.127Z,2.20
2022-11-07T13:47:37.407Z,2.10
2022-11-07T13:50:16.199Z,2.83
2022-11-07T13:52:53.144Z,2.07
2022-11-07T13:55:25.378Z,2.80
2022-11-07T13:57:56.944Z,2.20
2022-11-07T14:00:26.510Z,2.17
2022-11-07T14:02:57.659Z,2.10
2022-11-07T14:05:29.499Z,1.90
2022-11-07T14:08:03.761Z,1.83
2022-11-07T14:10:36.332Z,2.60
2022-11-07T14:13:08.750Z,2.13
2022-11-07T14:15:39.780Z,1.70
2022-11-07T14:18:09.679Z,1.90
2022-11-07T14:20:39.231Z,2.50
2022-11-07T14:23:16.355Z,2.20
2022-11-07T14:25:46.012Z,2.13
2022-11-07T14:28:19.397Z,2.60
2022-11-07T14:30:52.369Z,2.10
2022-11-07T14:33:23.917Z,2.97
2022-11-07T14:35:54.639Z,2.40
2022-11-07T14:38:27.807Z,2.00
2022-11-07T14:40:58.490Z,1.70
2022-11-07T14:43:29.168Z,1.90
2022-11-07T14:46:12.971Z,2.50
2022-11-07T14:48:45.502Z,1.80
2022-11-07T14:51:17.568Z,2.63
2022-11-07T14:53:56.304Z,2.67
2022-11-07T14:56:28.883Z,2.83
2022-11-07T14:58:58.993Z,2.27
2022-11-07T15:01:31.408Z,2.27
2022-11-07T15:04:02.691Z,2.50
2022-11-07T15:06:35.993Z,2.37
2022-11-07T15:09:09.679Z,2.53
2022-11-07T15:11:40.599Z,2.10
2022-11-07T15:14:25.169Z,1.97
2022-11-07T15:16:54.983Z,2.57
2022-11-07T15:19:26.539Z,2.47
2022-11-07T15:21:58.398Z,3.30
2022-11-07T15:24:40.677Z,2.00
2022-11-07T15:27:21.815Z,2.50
2022-11-07T15:29:54.287Z,2.40
2022-11-07T15:32:26.299Z,2.47
2022-11-07T15:35:17.018Z,2.37
2022-11-07T15:37:54.603Z,2.33
2022-11-07T15:40:27.067Z,2.23
2022-11-07T15:42:57.214Z,2.60
2022-11-07T15:45:26.906Z,2.27
2022-11-07T15:47:56.621Z,2.20
2022-11-07T15:50:28.669Z,2.30
2022-11-07T15:52:58.201Z,2.37
2022-11-07T15:55:30.366Z,1.80
2022-11-07T15:57:59.926Z,2.87
2022-11-07T16:00:29.811Z,2.33
